Pineville, MO

6:37 PM CST on February 01, 2015 (GMT -0600)
Rogers Municipal-Carter | Change Station
CLOSE
Current Station
Airport
Location: Rogers,
Elevation: 1358 ft
Nearby Weather Stations

Elev 1358 ft 36.37 °N, 94.11 °W | Updated 40 minutes ago

Overcast
Overcast
25 °F
Feels Like 11 °F
N
18
Wind Variable Wind from WNW
Gusts 24 mph

Today
High -- | Low -- °F
--% Chance of Precip.
Yesterday
High -- | Low -- °F
Precip. -- in
7:19 AM 5:43 PM
Waxing Gibbous, 97% visible
Pressure 30.05 in
Visibility 10.0 miles
Clouds Overcast 1600 ft
Windchill 11 °F
Dew Point 21 °F
Humidity 85%
Rainfall 0.58 in
Snow Depth Not available.
UV 0 out of 12
Pollen .10 out of 12
Air Quality Not available.
Flu Activity Not available.
METAR KROG 012357Z 30016G21KT 10SM OVC016 M04/M06 A3002 RMK AO2 SLP174 T10391061 10022 21039 51036

More Conditions Fewer Conditions

Pressure 30.05 in
Visibility 10.0 miles
Clouds Overcast 1600 ft
Windchill 11 °F
Dew Point 21 °F
Humidity 85%
Rainfall 0.58 in
Snow Depth Not available.
UV 0 out of 12
Pollen .10 out of 12
Air Quality Not available.
Flu Activity Not available.
METAR KROG 012357Z 30016G21KT 10SM OVC016 M04/M06 A3002 RMK AO2 SLP174 T10391061 10022 21039 51036

More Conditions Fewer Conditions

10-Day Weather Forecast

Almanac

Astronomy

Feb. 01, 2015 Rise Set
Actual Time
Civil Twilight
Nautical Twilight
Astronomical Twilight
Moon
Length of Visible Light
Length of Day
Tomorrow will be .
, % of the Moon is Illuminated

Today's Extremes

State Highs State Lows

Community

WunderPhotos

Upload Photos

1,792,628 photos uploaded!

WunderBlogs® & News

Nearby

Air Quality

  Air Quality AQ Index Pollutant
Not available.

Snow Depth

Station Depth Elevation

Earthquake Activity

City Distance Mag. Time & Date
Minimum magnitude displayed is 2.5.

Coastal Water Temperatures

Place Temperature

Nearby Weather Stations